createdAt,value
2018-05-18T00:00:12.852Z,10.9
2018-05-18T00:01:12.301Z,10.9
2018-05-18T00:02:11.243Z,10.9
2018-05-18T00:03:10.478Z,10.9
2018-05-18T00:04:09.916Z,10.9
2018-05-18T00:05:08.745Z,10.9
2018-05-18T00:06:08.082Z,10.8
2018-05-18T00:07:07.424Z,10.9
2018-05-18T00:08:06.260Z,10.9
2018-05-18T00:08:36.904Z,10.9
2018-05-18T00:09:07.737Z,10.9
2018-05-18T00:09:37.891Z,10.9
2018-05-18T00:10:08.214Z,10.8
2018-05-18T00:11:04.017Z,10.8
2018-05-18T00:12:03.135Z,10.9
2018-05-18T00:13:02.167Z,10.8
2018-05-18T00:14:01.708Z,10.8
2018-05-18T00:15:00.534Z,10.8
2018-05-18T00:15:59.762Z,10.8
2018-05-18T00:16:59.129Z,10.8
2018-05-18T00:17:58.585Z,10.8
2018-05-18T00:18:28.921Z,10.8
2018-05-18T00:18:59.175Z,10.8
2018-05-18T00:19:29.429Z,10.8
2018-05-18T00:20:00.072Z,10.8
2018-05-18T00:20:30.110Z,10.8
2018-05-18T00:21:00.872Z,10.8
2018-05-18T00:21:31.127Z,10.8
2018-05-18T00:22:01.158Z,10.8
2018-05-18T00:22:31.814Z,10.8
2018-05-18T00:23:53.291Z,10.8
2018-05-18T00:24:52.793Z,10.8
2018-05-18T00:25:51.628Z,10.8
2018-05-18T00:26:50.957Z,10.7
2018-05-18T00:27:50.072Z,10.7
2018-05-18T00:28:49.196Z,10.7
2018-05-18T00:29:19.635Z,10.7
2018-05-18T00:29:50.284Z,10.7
2018-05-18T00:30:20.939Z,10.7
2018-05-18T00:30:51.776Z,10.7
2018-05-18T00:31:22.030Z,10.7
2018-05-18T00:31:52.076Z,10.7
2018-05-18T00:32:22.624Z,10.7
2018-05-18T00:33:45.224Z,10.7
2018-05-18T00:34:44.661Z,10.7
2018-05-18T00:35:43.606Z,10.6
2018-05-18T00:36:42.823Z,10.6
2018-05-18T00:37:42.054Z,10.6
2018-05-18T00:38:41.008Z,10.6
2018-05-18T00:39:40.368Z,10.6
2018-05-18T00:40:39.323Z,10.6
2018-05-18T00:41:38.661Z,10.6
2018-05-18T00:42:37.876Z,10.6
2018-05-18T00:43:37.328Z,10.6
2018-05-18T00:44:36.047Z,10.5
2018-05-18T00:45:35.497Z,10.5
2018-05-18T00:46:34.726Z,10.5
2018-05-18T00:47:33.548Z,10.4
2018-05-18T00:48:32.883Z,10.5
2018-05-18T00:49:32.317Z,10.5
2018-05-18T00:50:02.468Z,10.5
2018-05-18T00:50:33.009Z,10.4
2018-05-18T00:51:30.221Z,10.4
2018-05-18T00:52:29.444Z,10.4
2018-05-18T00:53:28.968Z,10.4
2018-05-18T00:54:27.798Z,10.4
2018-05-18T00:55:27.029Z,10.4
2018-05-18T00:56:26.364Z,10.4
2018-05-18T00:57:25.298Z,10.3
2018-05-18T00:58:24.628Z,10.4
2018-05-18T00:59:23.765Z,10.4
2018-05-18T01:00:23.000Z,10.3
2018-05-18T01:00:53.651Z,10.3
2018-05-18T01:01:24.179Z,10.3
2018-05-18T01:01:54.712Z,10.3
2018-05-18T01:03:20.831Z,10.3
2018-05-18T01:04:19.672Z,10.3
2018-05-18T01:05:18.793Z,10.3
2018-05-18T01:06:18.020Z,10.3
2018-05-18T01:07:17.460Z,10.3
2018-05-18T01:08:16.291Z,10.3
2018-05-18T01:09:15.639Z,10.3
2018-05-18T01:10:14.366Z,10.3
2018-05-18T01:10:45.021Z,10.3
2018-05-18T01:11:15.673Z,10.3
2018-05-18T01:11:45.708Z,10.3
2018-05-18T01:13:12.122Z,10.3
2018-05-18T01:14:11.581Z,10.3
2018-05-18T01:15:10.300Z,10.3
2018-05-18T01:16:09.312Z,10.2
2018-05-18T01:17:09.159Z,10.2
2018-05-18T01:18:07.988Z,10.2
2018-05-18T01:19:07.429Z,10.2
2018-05-18T01:20:06.151Z,10.2
2018-05-18T01:21:05.379Z,10.2
2018-05-18T01:22:04.606Z,10.2
2018-05-18T01:23:03.952Z,10.2
2018-05-18T01:24:03.178Z,10.2
2018-05-18T01:25:02.416Z,10.1
2018-05-18T01:26:01.390Z,10.1
2018-05-18T01:27:00.831Z,10.1
2018-05-18T01:27:59.951Z,10.1
2018-05-18T01:28:59.301Z,10.1
2018-05-18T01:29:58.132Z,10.1
2018-05-18T01:30:57.595Z,10.1
2018-05-18T01:31:56.539Z,10.1
2018-05-18T01:32:55.884Z,10.1
2018-05-18T01:33:54.712Z,10.1
2018-05-18T01:34:53.838Z,10.1
2018-05-18T01:35:53.171Z,10
2018-05-18T01:36:52.402Z,10
2018-05-18T01:37:51.429Z,10.1
2018-05-18T01:39:49.441Z,10
2018-05-18T01:40:49.069Z,10
2018-05-18T01:41:48.290Z,10.1
2018-05-18T01:42:47.735Z,10.1
2018-05-18T01:43:46.568Z,10.1
2018-05-18T01:44:45.789Z,10.1
2018-05-18T01:45:45.228Z,10.1
2018-05-18T01:46:44.053Z,10.1
2018-05-18T01:47:43.291Z,10.1
2018-05-18T01:48:42.626Z,10.1
2018-05-18T01:49:41.457Z,10.1
2018-05-18T01:50:40.672Z,10.1
2018-05-18T01:51:40.126Z,10.1
2018-05-18T01:52:38.953Z,10.1
2018-05-18T01:53:38.401Z,10.1
2018-05-18T01:54:37.418Z,10.1
2018-05-18T01:55:36.538Z,10.2
2018-05-18T01:56:35.879Z,10.1
2018-05-18T01:57:06.650Z,10.1
2018-05-18T01:58:34.167Z,10.1
2018-05-18T01:59:33.607Z,10.1
2018-05-18T02:00:32.447Z,10.1
2018-05-18T02:01:31.780Z,10.1
2018-05-18T02:02:31.005Z,10.1
2018-05-18T02:03:29.726Z,10.1
2018-05-18T02:04:29.058Z,10.1
2018-05-18T02:05:28.290Z,10.2
2018-05-18T02:06:27.735Z,10.2
2018-05-18T02:06:58.004Z,10.2
2018-05-18T02:07:28.338Z,10.1
2018-05-18T02:07:58.467Z,10.1
2018-05-18T02:08:29.014Z,10.1
2018-05-18T02:08:59.773Z,10.1
2018-05-18T02:10:24.160Z,10.1
2018-05-18T02:11:23.595Z,10.1
2018-05-18T02:12:22.610Z,10.1
2018-05-18T02:13:21.546Z,10.1
2018-05-18T02:14:20.919Z,10.1
2018-05-18T02:15:20.042Z,10.1
2018-05-18T02:16:18.865Z,10.1
2018-05-18T02:17:17.972Z,10.1
2018-05-18T02:18:17.183Z,10.1
2018-05-18T02:18:47.925Z,10.1
2018-05-18T02:19:17.958Z,10.2
2018-05-18T02:19:48.602Z,10.2
2018-05-18T02:21:14.890Z,10.2
2018-05-18T02:22:14.097Z,10.2
2018-05-18T02:23:13.216Z,10.2
2018-05-18T02:24:12.653Z,10.2
2018-05-18T02:25:11.574Z,10.2
2018-05-18T02:26:10.900Z,10.2
2018-05-18T02:27:10.122Z,10.2
2018-05-18T02:28:08.942Z,10.2
2018-05-18T02:29:08.276Z,10.2
2018-05-18T02:30:07.729Z,10.2
2018-05-18T02:31:06.341Z,10.2
2018-05-18T02:32:05.464Z,10.2
2018-05-18T02:33:04.584Z,10.2
2018-05-18T02:34:04.024Z,10.2
2018-05-18T02:35:03.142Z,10.2
2018-05-18T02:36:02.386Z,10.2
2018-05-18T02:36:33.034Z,10.2
2018-05-18T02:37:02.977Z,10.3
2018-05-18T02:37:33.509Z,10.3
2018-05-18T02:38:04.144Z,10.3
2018-05-18T02:38:34.901Z,10.3
2018-05-18T02:39:59.300Z,10.3
2018-05-18T02:40:58.131Z,10.3
2018-05-18T02:41:57.494Z,10.3
2018-05-18T02:42:56.709Z,10.3
2018-05-18T02:43:55.928Z,10.3
2018-05-18T02:44:55.149Z,10.3
2018-05-18T02:45:53.871Z,10.3
2018-05-18T02:46:53.202Z,10.3
2018-05-18T02:47:23.841Z,10.3
2018-05-18T02:47:54.458Z,10.3
2018-05-18T02:48:24.733Z,10.3
2018-05-18T02:48:54.755Z,10.3
2018-05-18T02:49:25.301Z,10.3
2018-05-18T02:49:55.841Z,10.3
2018-05-18T02:50:26.399Z,10.3
2018-05-18T02:51:49.485Z,10.3
2018-05-18T02:52:48.207Z,10.3
2018-05-18T02:53:47.555Z,10.3
2018-05-18T02:54:46.990Z,10.3
2018-05-18T02:55:45.926Z,10.3
2018-05-18T02:56:44.775Z,10.3
2018-05-18T02:57:43.972Z,10.3
2018-05-18T02:58:43.212Z,10.3
2018-05-18T02:59:13.869Z,10.3
2018-05-18T02:59:44.506Z,10.3
2018-05-18T03:00:15.264Z,10.3
2018-05-18T03:00:45.503Z,10.3
2018-05-18T03:01:40.702Z,10.4
2018-05-18T03:03:39.204Z,10.3
2018-05-18T03:04:38.436Z,10.3
2018-05-18T03:05:37.265Z,10.3
2018-05-18T03:06:36.377Z,10.4
2018-05-18T03:07:35.609Z,10.4
2018-05-18T03:08:35.045Z,10.4
2018-05-18T03:09:34.273Z,10.4
2018-05-18T03:10:33.183Z,10.4
2018-05-18T03:11:32.295Z,10.4
2018-05-18T03:12:31.586Z,10.4
2018-05-18T03:14:29.799Z,10.4
2018-05-18T03:15:29.026Z,10.4
2018-05-18T03:16:28.243Z,10.4
2018-05-18T03:17:27.588Z,10.4
2018-05-18T03:18:27.015Z,10.4
2018-05-18T03:20:25.219Z,10.4
2018-05-18T03:21:24.221Z,10.4
2018-05-18T03:22:23.548Z,10.5
2018-05-18T03:23:22.670Z,10.5
2018-05-18T03:24:21.598Z,10.5
2018-05-18T03:25:20.937Z,10.5
2018-05-18T03:26:20.254Z,10.5
2018-05-18T03:27:19.202Z,10.5
2018-05-18T03:28:18.306Z,10.5
2018-05-18T03:29:17.525Z,10.6
2018-05-18T03:30:16.871Z,10.6
2018-05-18T03:31:15.591Z,10.6
2018-05-18T03:32:14.914Z,10.6
2018-05-18T03:33:14.355Z,10.6
2018-05-18T03:34:13.712Z,10.6
2018-05-18T03:35:12.522Z,10.6
2018-05-18T03:36:11.854Z,10.6
2018-05-18T03:37:10.670Z,10.6
2018-05-18T03:38:10.099Z,10.7
2018-05-18T03:39:09.316Z,10.7
2018-05-18T03:40:08.434Z,10.7
2018-05-18T03:41:07.541Z,10.7
2018-05-18T03:42:06.990Z,10.7
2018-05-18T03:43:05.709Z,10.7
2018-05-18T03:44:04.813Z,10.7
2018-05-18T03:44:35.244Z,10.7
2018-05-18T03:45:05.458Z,10.7
2018-05-18T03:45:36.218Z,10.7
2018-05-18T03:47:02.835Z,10.8
2018-05-18T03:48:01.548Z,10.8
2018-05-18T03:49:59.693Z,10.8
2018-05-18T03:50:59.629Z,10.8
2018-05-18T03:51:58.594Z,10.8
2018-05-18T03:52:57.415Z,10.8
2018-05-18T03:53:56.849Z,10.8
2018-05-18T03:54:27.090Z,10.8
2018-05-18T03:54:57.218Z,10.8
2018-05-18T03:55:27.761Z,10.8
2018-05-18T03:55:58.381Z,10.8
2018-05-18T03:56:29.018Z,10.8
2018-05-18T03:57:53.610Z,10.8
2018-05-18T03:59:51.713Z,10.8
2018-05-18T04:00:50.924Z,10.8
2018-05-18T04:01:50.135Z,10.8
2018-05-18T04:02:49.471Z,10.8
2018-05-18T04:03:48.791Z,10.8
2018-05-18T04:04:47.511Z,10.8
2018-05-18T04:05:46.719Z,10.9
2018-05-18T04:06:46.326Z,10.8
2018-05-18T04:07:45.574Z,10.9
2018-05-18T04:08:44.319Z,10.9
2018-05-18T04:09:43.538Z,10.9
2018-05-18T04:10:42.645Z,10.9
2018-05-18T04:11:41.978Z,10.9
2018-05-18T04:12:41.190Z,10.9
2018-05-18T04:13:40.511Z,10.9
2018-05-18T04:14:11.043Z,10.9
2018-05-18T04:14:41.678Z,10.9
2018-05-18T04:16:37.980Z,10.9
2018-05-18T04:17:37.094Z,10.9
2018-05-18T04:19:35.302Z,10.9
2018-05-18T04:20:34.726Z,10.9
2018-05-18T04:21:33.559Z,10.9
2018-05-18T04:22:32.883Z,11
2018-05-18T04:23:31.997Z,11
2018-05-18T04:24:02.309Z,11
2018-05-18T04:24:32.736Z,11
2018-05-18T04:25:03.147Z,11
2018-05-18T04:25:33.894Z,11
2018-05-18T04:26:03.921Z,11
2018-05-18T04:26:34.445Z,11
2018-05-18T04:27:04.980Z,11
2018-05-18T04:28:28.014Z,11
2018-05-18T04:29:27.135Z,11
2018-05-18T04:30:26.359Z,11
2018-05-18T04:31:25.677Z,11
2018-05-18T04:32:24.503Z,11
2018-05-18T04:33:23.953Z,11
2018-05-18T04:34:23.171Z,11
2018-05-18T04:34:53.920Z,11
2018-05-18T04:35:24.446Z,11
2018-05-18T04:35:55.231Z,11
2018-05-18T04:36:25.260Z,11
2018-05-18T04:36:56.006Z,11
2018-05-18T04:37:26.026Z,11
2018-05-18T04:37:56.665Z,11
2018-05-18T04:39:19.033Z,11
2018-05-18T04:40:17.955Z,11
2018-05-18T04:41:17.275Z,11
2018-05-18T04:43:15.666Z,11
2018-05-18T04:44:14.713Z,11
2018-05-18T04:45:14.138Z,11
2018-05-18T04:46:13.079Z,11
2018-05-18T04:47:12.408Z,11
2018-05-18T04:48:11.518Z,11
2018-05-18T04:48:42.154Z,11
2018-05-18T04:49:12.797Z,11
2018-05-18T04:50:10.110Z,11
2018-05-18T04:51:08.822Z,11
2018-05-18T04:53:07.716Z,11
2018-05-18T04:54:06.323Z,11
2018-05-18T04:55:05.658Z,11
2018-05-18T04:56:04.974Z,11
2018-05-18T04:57:04.199Z,11
2018-05-18T04:58:03.631Z,11
2018-05-18T04:59:02.035Z,11
2018-05-18T05:00:01.760Z,11
2018-05-18T05:01:00.686Z,11
2018-05-18T05:01:59.906Z,11
2018-05-18T05:02:59.007Z,11
2018-05-18T05:03:58.220Z,11
2018-05-18T05:04:57.516Z,11.1
2018-05-18T05:05:56.626Z,11.1
2018-05-18T05:06:27.155Z,11.1
2018-05-18T05:06:57.907Z,11.1
2018-05-18T05:07:28.455Z,11.1
2018-05-18T05:08:53.714Z,11.1
2018-05-18T05:09:53.430Z,11.1
2018-05-18T05:10:52.749Z,11.1
2018-05-18T05:11:51.757Z,11.1
2018-05-18T05:12:51.095Z,11.1
2018-05-18T05:13:50.419Z,11.1
2018-05-18T05:14:49.255Z,11.1
2018-05-18T05:15:48.441Z,11.1
2018-05-18T05:16:47.675Z,11.1
2018-05-18T05:17:18.105Z,11.1
2018-05-18T05:18:46.017Z,11.1
2018-05-18T05:19:45.444Z,11.1
2018-05-18T05:20:44.154Z,11.2
2018-05-18T05:21:43.473Z,11.2
2018-05-18T05:22:42.810Z,11.2
2018-05-18T05:23:42.659Z,11.1
2018-05-18T05:24:40.875Z,11.1
2018-05-18T05:25:40.308Z,11.2
2018-05-18T05:26:39.528Z,11.2
2018-05-18T05:27:38.859Z,11.2
2018-05-18T05:28:37.965Z,11.1
2018-05-18T05:29:37.402Z,11.2
2018-05-18T05:30:36.613Z,11.2
2018-05-18T05:31:35.426Z,11.2
2018-05-18T05:32:34.751Z,11.2
2018-05-18T05:33:05.505Z,11.2
2018-05-18T05:33:36.031Z,11.2
2018-05-18T05:34:06.791Z,11.2
2018-05-18T05:35:32.284Z,11.3
2018-05-18T05:36:31.305Z,11.3
2018-05-18T05:37:30.479Z,11.3
2018-05-18T05:38:29.804Z,11.3
2018-05-18T05:39:29.021Z,11.3
2018-05-18T05:40:27.959Z,11.2
2018-05-18T05:41:27.284Z,11.2
2018-05-18T05:42:26.609Z,11.2
2018-05-18T05:42:56.854Z,11.2
2018-05-18T05:43:27.103Z,11.2
2018-05-18T05:43:57.531Z,11.2
2018-05-18T05:44:28.328Z,11.2
2018-05-18T05:44:58.462Z,11.2
2018-05-18T05:45:28.987Z,11.2
2018-05-18T05:46:23.397Z,11.2
2018-05-18T05:47:22.335Z,11.1
2018-05-18T05:48:21.551Z,11.1
2018-05-18T05:49:20.979Z,11.1
2018-05-18T05:50:19.698Z,11.1
2018-05-18T05:51:19.173Z,11.1
2018-05-18T05:52:18.310Z,11.2
2018-05-18T05:53:17.000Z,11.2
2018-05-18T05:54:16.835Z,11.2
2018-05-18T05:55:15.680Z,11.2
2018-05-18T05:56:14.894Z,11.2
2018-05-18T05:57:14.121Z,11.2
2018-05-18T05:58:13.331Z,11.2
2018-05-18T05:59:12.663Z,11.2
2018-05-18T06:00:12.000Z,11.2
2018-05-18T06:01:10.491Z,11.2
2018-05-18T06:02:10.325Z,11.2
2018-05-18T06:02:40.964Z,11.2
2018-05-18T06:04:08.621Z,11.1
2018-05-18T06:05:07.944Z,11.1
2018-05-18T06:06:06.884Z,11.2
2018-05-18T06:07:06.205Z,11.2
2018-05-18T06:08:05.321Z,11.1
2018-05-18T06:09:04.534Z,11.1
2018-05-18T06:10:03.537Z,11.1
2018-05-18T06:11:02.859Z,11.1
2018-05-18T06:12:01.656Z,11.1
2018-05-18T06:12:32.291Z,11.1
2018-05-18T06:13:02.925Z,11.1
2018-05-18T06:13:33.664Z,11.1
2018-05-18T06:14:04.185Z,11.1
2018-05-18T06:14:34.937Z,11.1
2018-05-18T06:15:04.975Z,11.1
2018-05-18T06:15:35.511Z,11.1
2018-05-18T06:16:06.231Z,11.1
2018-05-18T06:16:36.368Z,11.1
2018-05-18T06:17:56.823Z,11.1
2018-05-18T06:18:56.054Z,11.1
2018-05-18T06:19:55.379Z,11.1
2018-05-18T06:20:54.491Z,11.1
2018-05-18T06:21:53.921Z,11.1
2018-05-18T06:22:52.755Z,11.2
2018-05-18T06:23:52.073Z,11.2
2018-05-18T06:24:22.806Z,11.2
2018-05-18T06:24:52.726Z,11.2
2018-05-18T06:25:23.149Z,11.2
2018-05-18T06:25:53.869Z,11.1
2018-05-18T06:26:24.400Z,11.1
2018-05-18T06:27:48.990Z,11.1
2018-05-18T06:28:48.437Z,11.1
2018-05-18T06:29:47.389Z,11.1
2018-05-18T06:30:46.308Z,11.1
2018-05-18T06:31:45.534Z,11.1
2018-05-18T06:32:44.865Z,11.1
2018-05-18T06:33:44.296Z,11.2
2018-05-18T06:34:43.461Z,11.2
2018-05-18T06:35:42.283Z,11.2
2018-05-18T06:36:41.618Z,11.2
2018-05-18T06:37:40.710Z,11.2
2018-05-18T06:38:39.820Z,11.2
2018-05-18T06:39:39.256Z,11.2
2018-05-18T06:40:38.088Z,11.2
2018-05-18T06:41:37.307Z,11.2
2018-05-18T06:42:36.639Z,11.2
2018-05-18T06:43:07.277Z,11.2
2018-05-18T06:43:37.693Z,11.2
2018-05-18T06:44:08.110Z,11.2
2018-05-18T06:45:34.111Z,11.1
2018-05-18T06:46:33.552Z,11.2
2018-05-18T06:47:32.370Z,11.2
2018-05-18T06:48:31.716Z,11.2
2018-05-18T06:49:30.831Z,11.1
2018-05-18T06:50:30.160Z,11.1
2018-05-18T06:51:29.379Z,11.1
2018-05-18T06:52:28.602Z,11.1
2018-05-18T06:53:27.207Z,11.1
2018-05-18T06:53:57.930Z,11.1
2018-05-18T06:54:28.181Z,11.1
2018-05-18T06:54:58.418Z,11.1
2018-05-18T06:55:28.443Z,11.1
2018-05-18T06:55:58.975Z,11.1
2018-05-18T06:57:24.358Z,11.1
2018-05-18T06:58:23.460Z,11.1
2018-05-18T06:59:23.106Z,11.1
2018-05-18T07:00:21.943Z,11.1
2018-05-18T07:01:21.386Z,11.1
2018-05-18T07:02:19.881Z,11.1
2018-05-18T07:04:18.706Z,11.2
2018-05-18T07:05:18.195Z,11.2
2018-05-18T07:05:48.326Z,11.2
2018-05-18T07:07:16.335Z,11.1
2018-05-18T07:08:15.671Z,11.1
2018-05-18T07:10:13.779Z,11.2
2018-05-18T07:11:13.005Z,11.2
2018-05-18T07:12:12.345Z,11.2
2018-05-18T07:13:11.164Z,11.2
2018-05-18T07:14:10.493Z,11.2
2018-05-18T07:15:09.716Z,11.2
2018-05-18T07:16:08.934Z,11.2
2018-05-18T07:17:08.223Z,11.2
2018-05-18T07:18:06.939Z,11.2
2018-05-18T07:19:06.272Z,11.2
2018-05-18T07:20:05.700Z,11.3
2018-05-18T07:23:03.705Z,11.2
2018-05-18T07:24:02.424Z,11.2
2018-05-18T07:25:01.647Z,11.1
2018-05-18T07:26:00.968Z,11.2
2018-05-18T07:26:59.577Z,11.2
2018-05-18T07:27:58.799Z,11.2
2018-05-18T07:28:57.911Z,11.2
2018-05-18T07:30:56.415Z,11.2
2018-05-18T07:31:55.753Z,11.2
2018-05-18T07:32:54.986Z,11.3
2018-05-18T07:33:54.383Z,11.3
2018-05-18T07:34:53.207Z,11.3
2018-05-18T07:35:52.535Z,11.3
2018-05-18T07:36:51.989Z,11.3
2018-05-18T07:37:50.937Z,11.3
2018-05-18T07:38:50.259Z,11.3
2018-05-18T07:39:49.769Z,11.2
2018-05-18T07:40:48.487Z,11.2
2018-05-18T07:41:47.924Z,11.2
2018-05-18T07:42:46.743Z,11.3
2018-05-18T07:43:46.401Z,11.3
2018-05-18T07:44:45.190Z,11.4
2018-05-18T07:45:44.407Z,11.4
2018-05-18T07:47:43.118Z,11.4
2018-05-18T07:48:41.834Z,11.4
2018-05-18T07:49:41.168Z,11.3
2018-05-18T07:50:40.495Z,11.3
2018-05-18T07:51:11.249Z,11.3
2018-05-18T07:51:41.881Z,11.3
2018-05-18T07:52:11.982Z,11.3
2018-05-18T07:53:38.687Z,11.4
2018-05-18T07:54:37.421Z,11.5
2018-05-18T07:55:36.351Z,11.5
2018-05-18T07:56:35.558Z,11.5
2018-05-18T07:57:34.787Z,11.5
2018-05-18T07:58:34.228Z,11.5
2018-05-18T07:59:33.648Z,11.4
2018-05-18T08:00:32.575Z,11.3
2018-05-18T08:01:02.610Z,11.3
2018-05-18T08:01:33.257Z,11.3
2018-05-18T08:02:03.781Z,11.3
2018-05-18T08:02:34.427Z,11.4
2018-05-18T08:03:04.565Z,11.4
2018-05-18T08:06:27.450Z,11.3
2018-05-18T08:07:26.718Z,11.3
2018-05-18T08:08:25.816Z,11.3
2018-05-18T08:09:25.038Z,11.4
2018-05-18T08:10:24.361Z,11.4
2018-05-18T08:11:23.287Z,11.5
2018-05-18T08:12:22.606Z,11.4
2018-05-18T08:13:21.947Z,11.4
2018-05-18T08:13:52.684Z,11.4
2018-05-18T08:15:20.183Z,11.4
2018-05-18T08:16:19.504Z,11.3
2018-05-18T08:17:18.222Z,11.3
2018-05-18T08:18:17.438Z,11.2
2018-05-18T08:19:16.986Z,11.3
2018-05-18T08:20:16.199Z,11.3
2018-05-18T08:20:46.729Z,11.3
2018-05-18T08:21:17.266Z,11.3
2018-05-18T08:22:14.583Z,11.3
2018-05-18T08:25:12.175Z,11.4
2018-05-18T08:26:10.909Z,11.4
2018-05-18T08:27:10.267Z,11.4
2018-05-18T08:28:09.538Z,11.4
2018-05-18T08:29:08.988Z,11.4
2018-05-18T08:30:07.718Z,11.4
2018-05-18T08:30:38.250Z,11.4
2018-05-18T08:31:08.663Z,11.3
2018-05-18T08:31:39.090Z,11.3
2018-05-18T08:32:09.733Z,11.3
2018-05-18T08:32:39.864Z,11.3
2018-05-18T08:33:10.497Z,11.4
2018-05-18T08:33:40.639Z,11.4
2018-05-18T08:35:04.230Z,11.4
2018-05-18T08:36:02.943Z,11.5
2018-05-18T08:39:00.543Z,11.5
2018-05-18T08:39:59.972Z,11.5
2018-05-18T08:40:58.789Z,11.5
2018-05-18T08:41:29.313Z,11.5
2018-05-18T08:41:59.957Z,11.5
2018-05-18T08:42:30.567Z,11.5
2018-05-18T08:43:01.335Z,11.6
2018-05-18T08:43:31.758Z,11.6
2018-05-18T08:44:02.203Z,11.6
2018-05-18T08:44:33.110Z,11.6
2018-05-18T08:45:55.075Z,11.7
2018-05-18T08:46:54.510Z,11.7
2018-05-18T08:47:53.441Z,11.7
2018-05-18T08:48:52.874Z,11.7
2018-05-18T08:50:51.198Z,11.6
2018-05-18T08:51:50.314Z,11.6
2018-05-18T08:52:49.034Z,11.5
2018-05-18T08:54:47.685Z,11.6
2018-05-18T08:55:17.998Z,11.6
2018-05-18T08:55:48.527Z,11.6
2018-05-18T08:56:46.450Z,11.6
2018-05-18T08:57:45.170Z,11.6
2018-05-18T08:58:44.391Z,11.6
2018-05-18T08:59:43.719Z,11.7
2018-05-18T09:00:43.274Z,11.5
2018-05-18T09:01:41.989Z,11.6
2018-05-18T09:02:41.305Z,11.6
2018-05-18T09:03:40.516Z,11.7
2018-05-18T09:04:39.729Z,11.7
2018-05-18T09:05:38.838Z,11.8
2018-05-18T09:06:38.258Z,11.9
2018-05-18T09:07:37.183Z,11.9
2018-05-18T09:08:35.975Z,11.8
2018-05-18T09:09:35.737Z,11.9
2018-05-18T09:10:34.747Z,11.7
2018-05-18T09:11:34.257Z,11.7
2018-05-18T09:12:32.980Z,11.6
2018-05-18T09:13:32.810Z,11.6
2018-05-18T09:14:03.053Z,11.6
2018-05-18T09:15:31.129Z,11.6
2018-05-18T09:16:30.063Z,11.6
2018-05-18T09:17:29.500Z,11.6
2018-05-18T09:18:28.219Z,11.6
2018-05-18T09:19:27.442Z,11.7
2018-05-18T09:20:26.876Z,11.7
2018-05-18T09:21:26.190Z,11.7
2018-05-18T09:22:25.009Z,11.7
2018-05-18T09:23:24.324Z,11.7
2018-05-18T09:24:23.536Z,11.8
2018-05-18T09:24:54.177Z,11.8
2018-05-18T09:25:24.711Z,11.7
2018-05-18T09:26:22.202Z,11.8
2018-05-18T09:27:21.021Z,11.7
2018-05-18T09:28:20.462Z,11.8
2018-05-18T09:29:19.899Z,11.8
2018-05-18T09:30:18.663Z,11.8
2018-05-18T09:31:17.986Z,11.8
2018-05-18T09:32:17.418Z,11.9
2018-05-18T09:33:16.019Z,12
2018-05-18T09:34:16.577Z,12
2018-05-18T09:35:15.009Z,12
2018-05-18T09:36:13.724Z,11.9
2018-05-18T09:37:13.231Z,11.9
2018-05-18T09:38:12.463Z,12
2018-05-18T09:39:11.707Z,12.2
2018-05-18T09:39:42.571Z,12.2
2018-05-18T09:40:12.498Z,12.2
2018-05-18T09:40:43.126Z,12.2
2018-05-18T09:41:13.770Z,12.3
2018-05-18T09:41:44.293Z,12.3
2018-05-18T09:42:14.834Z,12.3
2018-05-18T09:43:08.510Z,12.2
2018-05-18T09:45:06.931Z,12
2018-05-18T09:46:06.270Z,12.1
2018-05-18T09:47:05.574Z,12.1
2018-05-18T09:48:04.294Z,12.2
2018-05-18T09:49:03.302Z,12.3
2018-05-18T09:49:33.826Z,12.3
2018-05-18T09:50:04.524Z,12.3
2018-05-18T09:50:35.170Z,12.3
2018-05-18T09:51:05.699Z,12.3
2018-05-18T09:51:36.533Z,12.3
2018-05-18T09:53:00.409Z,12.4
2018-05-18T09:55:01.101Z,12.5
2018-05-18T09:55:58.250Z,12.6
2018-05-18T09:57:56.353Z,12.8
2018-05-18T09:58:55.790Z,12.7
2018-05-18T09:59:55.007Z,12.8
2018-05-18T10:00:54.331Z,12.8
2018-05-18T10:02:52.549Z,12.8
2018-05-18T10:04:51.368Z,12.7
2018-05-18T10:05:50.083Z,12.8
2018-05-18T10:06:49.097Z,12.9
2018-05-18T10:07:48.527Z,12.8
2018-05-18T10:08:47.853Z,12.6
2018-05-18T10:09:18.604Z,12.6
2018-05-18T10:09:48.744Z,12.6
2018-05-18T10:10:19.384Z,12.6
2018-05-18T10:11:45.065Z,12.7
2018-05-18T10:12:44.900Z,12.6
2018-05-18T10:13:43.604Z,12.7
2018-05-18T10:14:43.127Z,12.7
2018-05-18T10:15:42.576Z,12.6
2018-05-18T10:16:41.397Z,12.6
2018-05-18T10:17:40.721Z,12.6
2018-05-18T10:18:40.819Z,12.6
2018-05-18T10:19:10.424Z,12.6
2018-05-18T10:19:40.954Z,12.6
2018-05-18T10:20:11.384Z,12.6
2018-05-18T10:20:42.026Z,12.6
2018-05-18T10:21:12.670Z,12.6
2018-05-18T10:21:43.309Z,12.3
2018-05-18T10:22:13.855Z,12.3
2018-05-18T10:22:44.378Z,12.4
2018-05-18T10:23:15.023Z,12.4
2018-05-18T10:23:45.555Z,12.5
2018-05-18T10:24:16.372Z,12.5
2018-05-18T10:25:34.819Z,12.6
2018-05-18T10:26:33.762Z,12.7
2018-05-18T10:27:33.086Z,12.8
2018-05-18T10:28:32.407Z,12.8
2018-05-18T10:29:31.129Z,12.8
2018-05-18T10:30:30.468Z,12.8
2018-05-18T10:31:01.109Z,12.8
2018-05-18T10:31:31.859Z,12.9
2018-05-18T10:32:01.879Z,12.9
2018-05-18T10:32:32.519Z,12.9
2018-05-18T10:33:03.066Z,12.9
2018-05-18T10:33:33.609Z,12.9
2018-05-18T10:34:04.029Z,12.9
2018-05-18T10:35:26.900Z,12.9
2018-05-18T10:36:26.025Z,12.9
2018-05-18T10:37:25.349Z,13
2018-05-18T10:38:24.666Z,13
2018-05-18T10:39:23.389Z,12.9
2018-05-18T10:40:22.731Z,12.9
2018-05-18T10:41:22.164Z,12.7
2018-05-18T10:42:21.494Z,12.7
2018-05-18T10:43:20.105Z,12.7
2018-05-18T10:44:19.438Z,12.8
2018-05-18T10:46:18.053Z,12.9
2018-05-18T10:47:17.476Z,13
2018-05-18T10:48:16.690Z,13
2018-05-18T10:49:16.132Z,13
2018-05-18T10:50:14.959Z,13.1
2018-05-18T10:51:14.067Z,13.2
2018-05-18T10:51:44.717Z,13.2
2018-05-18T10:52:15.468Z,13.1
2018-05-18T10:53:13.079Z,13.2
2018-05-18T10:54:12.006Z,13.2
2018-05-18T10:55:11.333Z,13.1
2018-05-18T10:56:10.673Z,13.1
2018-05-18T10:57:10.007Z,13
2018-05-18T10:58:08.836Z,13.1
2018-05-18T10:59:07.848Z,13.1
2018-05-18T11:00:07.066Z,13
2018-05-18T11:01:06.179Z,12.9
2018-05-18T11:02:06.111Z,12.9
2018-05-18T11:02:36.364Z,12.9
2018-05-18T11:03:07.008Z,12.9
2018-05-18T11:03:37.139Z,12.9
2018-05-18T11:04:07.669Z,12.9
2018-05-18T11:04:38.197Z,12.9
2018-05-18T11:05:08.733Z,12.9
2018-05-18T11:06:02.518Z,12.9
2018-05-18T11:07:02.400Z,12.8
2018-05-18T11:08:01.209Z,12.9
2018-05-18T11:09:59.918Z,12.9
2018-05-18T11:10:58.735Z,12.9
2018-05-18T11:11:57.757Z,12.9
2018-05-18T11:12:57.700Z,12.9
2018-05-18T11:13:28.116Z,12.9
2018-05-18T11:13:59.312Z,12.8
2018-05-18T11:14:29.398Z,12.8
2018-05-18T11:14:59.425Z,12.8
2018-05-18T11:15:55.223Z,12.9
2018-05-18T11:16:53.840Z,12.9
2018-05-18T11:17:53.667Z,12.8
2018-05-18T11:18:52.490Z,12.9
2018-05-18T11:19:51.829Z,12.9
2018-05-18T11:20:51.051Z,13
2018-05-18T11:21:50.274Z,13
2018-05-18T11:22:49.599Z,12.9
2018-05-18T11:23:48.702Z,12.9
2018-05-18T11:25:47.414Z,13
2018-05-18T11:26:46.745Z,12.9
2018-05-18T11:27:45.679Z,13
2018-05-18T11:28:45.012Z,13
2018-05-18T11:29:15.653Z,13
2018-05-18T11:29:46.178Z,13
2018-05-18T11:30:43.488Z,13
2018-05-18T11:31:42.928Z,13.1
2018-05-18T11:32:41.756Z,13.1
2018-05-18T11:33:41.077Z,13.1
2018-05-18T11:34:40.293Z,13.1
2018-05-18T11:35:39.626Z,13.2
2018-05-18T11:36:39.060Z,13.2
2018-05-18T11:37:37.884Z,13.1
2018-05-18T11:38:37.106Z,13.1
2018-05-18T11:39:36.330Z,13.2
2018-05-18T11:40:06.859Z,13.2
2018-05-18T11:40:37.388Z,13.1
2018-05-18T11:41:35.097Z,13.1
2018-05-18T11:42:34.432Z,13.1
2018-05-18T11:43:33.357Z,13.1
2018-05-18T11:44:32.789Z,13.1
2018-05-18T11:45:32.116Z,13.1
2018-05-18T11:46:31.334Z,13.1
2018-05-18T11:47:30.670Z,13.1
2018-05-18T11:48:29.495Z,13.1
2018-05-18T11:49:28.716Z,13.1
2018-05-18T11:50:27.615Z,13.1
2018-05-18T11:51:27.340Z,13.1
2018-05-18T11:53:25.942Z,13.1
2018-05-18T11:54:24.651Z,13.1
2018-05-18T11:55:24.361Z,13.1
2018-05-18T11:56:22.860Z,13.1
2018-05-18T11:57:22.583Z,13.1
2018-05-18T11:58:21.693Z,13.1
2018-05-18T11:58:52.328Z,13.1
2018-05-18T11:59:22.856Z,13.1
2018-05-18T11:59:53.283Z,13.1
2018-05-18T12:00:23.818Z,13.1
2018-05-18T12:00:54.450Z,13.1
2018-05-18T12:02:19.290Z,13.2
2018-05-18T12:03:18.226Z,13.3
2018-05-18T12:04:17.161Z,13.4
2018-05-18T12:05:16.607Z,13.5
2018-05-18T12:06:15.935Z,13.6
2018-05-18T12:07:14.753Z,13.8
2018-05-18T12:08:14.359Z,13.8
2018-05-18T12:08:45.116Z,13.8
2018-05-18T12:09:14.645Z,13.8
2018-05-18T12:09:45.176Z,13.8
2018-05-18T12:10:15.484Z,13.9
2018-05-18T12:10:45.907Z,13.9
2018-05-18T12:11:16.562Z,14
2018-05-18T12:11:46.989Z,14
2018-05-18T12:13:10.604Z,13.8
2018-05-18T12:14:09.799Z,13.8
2018-05-18T12:15:08.723Z,13.8
2018-05-18T12:16:08.054Z,13.7
2018-05-18T12:17:07.499Z,13.7
2018-05-18T12:18:06.211Z,13.8
2018-05-18T12:19:06.043Z,13.7
2018-05-18T12:20:05.261Z,13.7